sensor_id;sensor_type;location;lat;lon;timestamp;pressure;altitude;pressure_sealevel;temperature;humidity
64340;BME280;50674;53.290;-9.080;2022-08-21T00:02:13;101444.47;;;14.43;79.80
64340;BME280;50674;53.290;-9.080;2022-08-21T00:07:42;101449.47;;;14.37;80.25
64340;BME280;50674;53.290;-9.080;2022-08-21T00:13:11;101447.38;;;14.40;79.83
64340;BME280;50674;53.290;-9.080;2022-08-21T00:18:40;101467.81;;;14.32;80.11
64340;BME280;50674;53.290;-9.080;2022-08-21T00:24:09;101461.44;;;14.33;79.61
64340;BME280;50674;53.290;-9.080;2022-08-21T00:29:38;101459.84;;;14.30;81.05
64340;BME280;50674;53.290;-9.080;2022-08-21T00:35:20;101450.22;;;14.39;80.48
64340;BME280;50674;53.290;-9.080;2022-08-21T00:40:54;101454.72;;;14.38;80.95
64340;BME280;50674;53.290;-9.080;2022-08-21T00:46:23;101473.63;;;14.37;81.42
64340;BME280;50674;53.290;-9.080;2022-08-21T01:01:03;101451.41;;;14.57;80.40
64340;BME280;50674;53.290;-9.080;2022-08-21T01:06:32;101441.41;;;14.59;80.42
64340;BME280;50674;53.290;-9.080;2022-08-21T01:12:02;101454.97;;;14.58;80.00
64340;BME280;50674;53.290;-9.080;2022-08-21T01:17:30;101462.16;;;14.57;79.77
64340;BME280;50674;53.290;-9.080;2022-08-21T01:23:01;101456.53;;;14.60;80.39
64340;BME280;50674;53.290;-9.080;2022-08-21T01:28:31;101453.31;;;14.77;80.83
64340;BME280;50674;53.290;-9.080;2022-08-21T01:34:01;101455.38;;;14.85;81.04
64340;BME280;50674;53.290;-9.080;2022-08-21T01:39:30;101444.13;;;14.91;79.09
64340;BME280;50674;53.290;-9.080;2022-08-21T01:44:59;101436.16;;;14.90;79.86
64340;BME280;50674;53.290;-9.080;2022-08-21T01:50:27;101427.16;;;14.91;79.35
64340;BME280;50674;53.290;-9.080;2022-08-21T01:55:55;101428.91;;;15.01;80.54
64340;BME280;50674;53.290;-9.080;2022-08-21T02:01:25;101421.66;;;15.13;80.11
64340;BME280;50674;53.290;-9.080;2022-08-21T02:06:54;101419.94;;;15.12;79.71
64340;BME280;50674;53.290;-9.080;2022-08-21T02:12:23;101417.72;;;15.17;79.36
64340;BME280;50674;53.290;-9.080;2022-08-21T02:17:53;101422.31;;;15.27;79.12
64340;BME280;50674;53.290;-9.080;2022-08-21T02:23:23;101423.44;;;15.24;78.72
64340;BME280;50674;53.290;-9.080;2022-08-21T02:28:52;101422.13;;;15.18;78.80
64340;BME280;50674;53.290;-9.080;2022-08-21T02:34:21;101412.47;;;15.16;79.24
64340;BME280;50674;53.290;-9.080;2022-08-21T02:39:50;101407.34;;;15.13;79.26
64340;BME280;50674;53.290;-9.080;2022-08-21T02:45:19;101407.09;;;14.95;78.59
64340;BME280;50674;53.290;-9.080;2022-08-21T02:50:51;101416.16;;;14.83;78.87
64340;BME280;50674;53.290;-9.080;2022-08-21T02:56:20;101412.41;;;14.74;79.36
64340;BME280;50674;53.290;-9.080;2022-08-21T03:01:49;101418.41;;;14.66;78.97
64340;BME280;50674;53.290;-9.080;2022-08-21T03:07:19;101422.72;;;14.58;78.20
64340;BME280;50674;53.290;-9.080;2022-08-21T03:12:48;101430.44;;;14.51;78.32
64340;BME280;50674;53.290;-9.080;2022-08-21T03:18:17;101430.81;;;14.35;79.12
64340;BME280;50674;53.290;-9.080;2022-08-21T03:23:47;101440.56;;;14.36;79.36
64340;BME280;50674;53.290;-9.080;2022-08-21T03:29:16;101437.28;;;14.33;78.61
64340;BME280;50674;53.290;-9.080;2022-08-21T03:34:45;101440.34;;;14.28;78.34
64340;BME280;50674;53.290;-9.080;2022-08-21T03:40:14;101453.00;;;14.26;79.12
64340;BME280;50674;53.290;-9.080;2022-08-21T03:45:43;101450.19;;;14.16;79.48
64340;BME280;50674;53.290;-9.080;2022-08-21T03:51:13;101448.63;;;14.14;80.08
64340;BME280;50674;53.290;-9.080;2022-08-21T03:56:41;101447.91;;;14.12;79.29
64340;BME280;50674;53.290;-9.080;2022-08-21T04:02:10;101450.81;;;14.09;80.66
64340;BME280;50674;53.290;-9.080;2022-08-21T04:07:42;101454.72;;;14.04;79.63
64340;BME280;50674;53.290;-9.080;2022-08-21T04:13:11;101451.31;;;14.02;79.65
64340;BME280;50674;53.290;-9.080;2022-08-21T04:18:39;101451.69;;;13.98;79.25
64340;BME280;50674;53.290;-9.080;2022-08-21T04:24:09;101450.09;;;13.95;78.91
64340;BME280;50674;53.290;-9.080;2022-08-21T04:29:38;101458.03;;;13.97;80.28
64340;BME280;50674;53.290;-9.080;2022-08-21T04:35:09;101444.97;;;13.92;78.75
64340;BME280;50674;53.290;-9.080;2022-08-21T04:40:38;101438.38;;;13.74;78.66
64340;BME280;50674;53.290;-9.080;2022-08-21T04:46:07;101443.72;;;13.63;79.29
64340;BME280;50674;53.290;-9.080;2022-08-21T04:51:36;101456.66;;;13.58;80.39
64340;BME280;50674;53.290;-9.080;2022-08-21T04:57:07;101456.16;;;13.64;80.70
64340;BME280;50674;53.290;-9.080;2022-08-21T05:02:39;101460.44;;;13.66;80.01
64340;BME280;50674;53.290;-9.080;2022-08-21T05:08:07;101462.97;;;13.68;80.30
64340;BME280;50674;53.290;-9.080;2022-08-21T05:13:37;101470.19;;;13.67;79.66
64340;BME280;50674;53.290;-9.080;2022-08-21T05:19:06;101477.00;;;13.71;80.24
64340;BME280;50674;53.290;-9.080;2022-08-21T05:24:35;101481.31;;;13.74;80.07
64340;BME280;50674;53.290;-9.080;2022-08-21T05:30:05;101477.53;;;13.76;80.29
64340;BME280;50674;53.290;-9.080;2022-08-21T05:35:36;101484.47;;;13.79;79.80
64340;BME280;50674;53.290;-9.080;2022-08-21T05:41:05;101486.31;;;13.78;79.93
64340;BME280;50674;53.290;-9.080;2022-08-21T05:46:33;101499.94;;;13.75;79.86
64340;BME280;50674;53.290;-9.080;2022-08-21T05:52:03;101503.75;;;13.73;80.01
64340;BME280;50674;53.290;-9.080;2022-08-21T05:57:32;101512.50;;;13.64;80.42
64340;BME280;50674;53.290;-9.080;2022-08-21T06:03:01;101526.28;;;13.70;79.93
64340;BME280;50674;53.290;-9.080;2022-08-21T06:08:29;101528.84;;;13.72;80.78
64340;BME280;50674;53.290;-9.080;2022-08-21T06:13:59;101533.06;;;13.87;81.30
64340;BME280;50674;53.290;-9.080;2022-08-21T06:19:28;101540.75;;;14.03;81.11
64340;BME280;50674;53.290;-9.080;2022-08-21T06:24:57;101546.00;;;14.16;80.96
64340;BME280;50674;53.290;-9.080;2022-08-21T06:30:25;101546.03;;;14.27;82.31
64340;BME280;50674;53.290;-9.080;2022-08-21T06:35:54;101553.22;;;14.38;81.33
64340;BME280;50674;53.290;-9.080;2022-08-21T06:41:24;101548.97;;;14.46;80.39
64340;BME280;50674;53.290;-9.080;2022-08-21T06:46:52;101554.09;;;14.61;82.11
64340;BME280;50674;53.290;-9.080;2022-08-21T06:52:21;101550.06;;;14.77;82.17
64340;BME280;50674;53.290;-9.080;2022-08-21T06:57:51;101550.03;;;15.00;81.88
64340;BME280;50674;53.290;-9.080;2022-08-21T07:03:23;101554.97;;;15.27;80.11
64340;BME280;50674;53.290;-9.080;2022-08-21T07:08:52;101539.84;;;15.47;79.89
64340;BME280;50674;53.290;-9.080;2022-08-21T07:14:21;101542.25;;;15.61;80.17
64340;BME280;50674;53.290;-9.080;2022-08-21T07:19:51;101540.31;;;15.84;80.23
64340;BME280;50674;53.290;-9.080;2022-08-21T07:25:19;101555.47;;;15.85;78.98
64340;BME280;50674;53.290;-9.080;2022-08-21T07:30:51;101550.34;;;16.03;79.63
64340;BME280;50674;53.290;-9.080;2022-08-21T07:36:20;101569.44;;;16.21;79.42
64340;BME280;50674;53.290;-9.080;2022-08-21T07:41:50;101561.66;;;16.28;78.84
64340;BME280;50674;53.290;-9.080;2022-08-21T07:47:19;101568.13;;;16.46;78.77
64340;BME280;50674;53.290;-9.080;2022-08-21T07:52:47;101566.34;;;16.56;78.97
64340;BME280;50674;53.290;-9.080;2022-08-21T07:58:16;101550.00;;;16.79;79.51
64340;BME280;50674;53.290;-9.080;2022-08-21T08:03:46;101545.06;;;16.93;78.56
64340;BME280;50674;53.290;-9.080;2022-08-21T08:09:14;101549.38;;;17.06;79.02
64340;BME280;50674;53.290;-9.080;2022-08-21T08:14:43;101548.25;;;17.18;78.07
64340;BME280;50674;53.290;-9.080;2022-08-21T08:20:13;101548.97;;;17.30;78.52
64340;BME280;50674;53.290;-9.080;2022-08-21T08:25:44;101546.28;;;17.39;77.44
64340;BME280;50674;53.290;-9.080;2022-08-21T08:31:12;101559.19;;;17.55;78.40
64340;BME280;50674;53.290;-9.080;2022-08-21T08:36:41;101557.94;;;17.79;79.31
64340;BME280;50674;53.290;-9.080;2022-08-21T08:47:43;101566.22;;;18.24;73.81
64340;BME280;50674;53.290;-9.080;2022-08-21T08:53:15;101566.84;;;18.55;75.45
64340;BME280;50674;53.290;-9.080;2022-08-21T08:58:46;101571.31;;;18.74;73.96
64340;BME280;50674;53.290;-9.080;2022-08-21T09:10:17;101576.03;;;19.00;69.84
64340;BME280;50674;53.290;-9.080;2022-08-21T09:16:12;101568.84;;;19.08;68.85
64340;BME280;50674;53.290;-9.080;2022-08-21T09:21:43;101561.59;;;19.27;66.51
64340;BME280;50674;53.290;-9.080;2022-08-21T09:27:16;101549.69;;;19.38;63.54
64340;BME280;50674;53.290;-9.080;2022-08-21T09:32:46;101545.44;;;19.53;66.92
64340;BME280;50674;53.290;-9.080;2022-08-21T09:38:22;101547.59;;;19.49;62.53
64340;BME280;50674;53.290;-9.080;2022-08-21T09:43:52;101531.81;;;19.45;62.60
64340;BME280;50674;53.290;-9.080;2022-08-21T09:49:29;101533.22;;;19.49;62.26
64340;BME280;50674;53.290;-9.080;2022-08-21T09:54:59;101547.00;;;19.55;60.12
64340;BME280;50674;53.290;-9.080;2022-08-21T10:00:32;101535.63;;;19.70;61.57
64340;BME280;50674;53.290;-9.080;2022-08-21T10:06:05;101536.53;;;19.78;56.88
64340;BME280;50674;53.290;-9.080;2022-08-21T10:11:37;101535.53;;;20.05;60.20
64340;BME280;50674;53.290;-9.080;2022-08-21T10:17:13;101533.09;;;20.20;54.72
64340;BME280;50674;53.290;-9.080;2022-08-21T10:22:47;101533.00;;;20.30;61.37
64340;BME280;50674;53.290;-9.080;2022-08-21T10:28:24;101553.00;;;20.29;58.36
64340;BME280;50674;53.290;-9.080;2022-08-21T10:40:02;101558.69;;;20.18;63.06
64340;BME280;50674;53.290;-9.080;2022-08-21T11:03:12;101556.63;;;20.46;60.50
64340;BME280;50674;53.290;-9.080;2022-08-21T11:08:43;101543.50;;;20.59;58.84
64340;BME280;50674;53.290;-9.080;2022-08-21T11:19:48;101542.41;;;20.86;63.08
64340;BME280;50674;53.290;-9.080;2022-08-21T11:25:21;101546.16;;;20.93;62.38
64340;BME280;50674;53.290;-9.080;2022-08-21T11:30:57;101536.03;;;21.03;58.79
64340;BME280;50674;53.290;-9.080;2022-08-21T11:47:31;101533.59;;;21.51;55.34
64340;BME280;50674;53.290;-9.080;2022-08-21T11:53:04;101522.53;;;21.77;50.87
64340;BME280;50674;53.290;-9.080;2022-08-21T11:58:48;101535.84;;;22.36;48.62
64340;BME280;50674;53.290;-9.080;2022-08-21T12:04:26;101524.50;;;23.34;45.50
64340;BME280;50674;53.290;-9.080;2022-08-21T12:09:57;101507.72;;;23.68;42.34
64340;BME280;50674;53.290;-9.080;2022-08-21T12:15:26;101517.47;;;24.15;43.94
64340;BME280;50674;53.290;-9.080;2022-08-21T12:20:58;101517.78;;;24.50;41.18
64340;BME280;50674;53.290;-9.080;2022-08-21T12:26:32;101520.81;;;24.91;43.18
64340;BME280;50674;53.290;-9.080;2022-08-21T12:32:03;101530.53;;;24.79;39.22
64340;BME280;50674;53.290;-9.080;2022-08-21T12:37:41;101524.69;;;24.82;45.15
64340;BME280;50674;53.290;-9.080;2022-08-21T12:43:12;101528.88;;;25.78;41.88
64340;BME280;50674;53.290;-9.080;2022-08-21T12:48:44;101530.75;;;26.75;39.50
64340;BME280;50674;53.290;-9.080;2022-08-21T12:54:22;101533.53;;;27.57;35.08
64340;BME280;50674;53.290;-9.080;2022-08-21T12:59:57;101500.56;;;28.16;36.84
64340;BME280;50674;53.290;-9.080;2022-08-21T13:05:29;101509.72;;;28.68;32.59
64340;BME280;50674;53.290;-9.080;2022-08-21T13:11:07;101496.94;;;28.42;33.16
64340;BME280;50674;53.290;-9.080;2022-08-21T13:16:35;101503.97;;;27.72;34.41
64340;BME280;50674;53.290;-9.080;2022-08-21T13:22:11;101496.38;;;27.34;39.46
64340;BME280;50674;53.290;-9.080;2022-08-21T13:27:41;101489.47;;;26.84;38.48
64340;BME280;50674;53.290;-9.080;2022-08-21T13:33:09;101484.25;;;26.95;35.51
64340;BME280;50674;53.290;-9.080;2022-08-21T13:38:41;101468.53;;;27.77;35.12
64340;BME280;50674;53.290;-9.080;2022-08-21T13:44:18;101461.63;;;28.33;35.71
64340;BME280;50674;53.290;-9.080;2022-08-21T13:49:49;101470.19;;;28.05;34.53
64340;BME280;50674;53.290;-9.080;2022-08-21T13:55:18;101459.63;;;28.08;36.91
64340;BME280;50674;53.290;-9.080;2022-08-21T14:00:50;101454.38;;;27.93;38.12
64340;BME280;50674;53.290;-9.080;2022-08-21T14:06:22;101445.53;;;28.56;35.29
64340;BME280;50674;53.290;-9.080;2022-08-21T14:11:52;101434.84;;;28.73;37.25
64340;BME280;50674;53.290;-9.080;2022-08-21T14:17:31;101423.47;;;29.08;34.51
64340;BME280;50674;53.290;-9.080;2022-08-21T14:23:00;101425.16;;;29.34;35.02
64340;BME280;50674;53.290;-9.080;2022-08-21T14:28:33;101419.81;;;29.39;33.76
64340;BME280;50674;53.290;-9.080;2022-08-21T14:34:04;101414.41;;;29.51;35.93
64340;BME280;50674;53.290;-9.080;2022-08-21T14:39:33;101408.13;;;29.69;33.12
64340;BME280;50674;53.290;-9.080;2022-08-21T14:45:06;101408.75;;;29.46;30.13
64340;BME280;50674;53.290;-9.080;2022-08-21T14:50:37;101406.34;;;29.56;28.09
64340;BME280;50674;53.290;-9.080;2022-08-21T14:56:06;101405.44;;;29.62;34.69
64340;BME280;50674;53.290;-9.080;2022-08-21T15:01:43;101409.59;;;30.08;30.01
64340;BME280;50674;53.290;-9.080;2022-08-21T15:07:12;101403.84;;;29.48;31.32
64340;BME280;50674;53.290;-9.080;2022-08-21T15:12:42;101397.31;;;29.24;35.44
64340;BME280;50674;53.290;-9.080;2022-08-21T15:18:10;101372.22;;;29.38;31.88
64340;BME280;50674;53.290;-9.080;2022-08-21T15:23:39;101356.09;;;29.42;31.03
64340;BME280;50674;53.290;-9.080;2022-08-21T15:29:07;101355.91;;;29.18;32.79
64340;BME280;50674;53.290;-9.080;2022-08-21T15:34:37;101367.28;;;28.20;35.43
64340;BME280;50674;53.290;-9.080;2022-08-21T15:40:05;101362.41;;;26.98;35.15
64340;BME280;50674;53.290;-9.080;2022-08-21T15:45:35;101361.09;;;26.06;39.55
64340;BME280;50674;53.290;-9.080;2022-08-21T15:51:03;101361.31;;;25.35;43.10
64340;BME280;50674;53.290;-9.080;2022-08-21T15:56:33;101352.63;;;24.60;42.41
64340;BME280;50674;53.290;-9.080;2022-08-21T16:02:04;101355.19;;;24.26;44.83
64340;BME280;50674;53.290;-9.080;2022-08-21T16:07:33;101365.38;;;23.87;45.30
64340;BME280;50674;53.290;-9.080;2022-08-21T16:13:02;101361.97;;;23.56;48.90
64340;BME280;50674;53.290;-9.080;2022-08-21T16:18:31;101351.63;;;23.36;47.76
64340;BME280;50674;53.290;-9.080;2022-08-21T16:24:00;101354.47;;;23.05;50.85
64340;BME280;50674;53.290;-9.080;2022-08-21T16:29:29;101348.63;;;22.93;53.15
64340;BME280;50674;53.290;-9.080;2022-08-21T16:35:01;101345.53;;;22.74;50.04
64340;BME280;50674;53.290;-9.080;2022-08-21T16:40:30;101338.75;;;22.69;48.35
64340;BME280;50674;53.290;-9.080;2022-08-21T16:45:59;101345.34;;;22.75;49.95
64340;BME280;50674;53.290;-9.080;2022-08-21T16:51:28;101352.03;;;22.64;50.59
64340;BME280;50674;53.290;-9.080;2022-08-21T16:56:58;101348.19;;;22.59;53.94
64340;BME280;50674;53.290;-9.080;2022-08-21T17:02:33;101354.69;;;22.50;52.08
64340;BME280;50674;53.290;-9.080;2022-08-21T17:08:02;101354.69;;;22.50;55.58
64340;BME280;50674;53.290;-9.080;2022-08-21T17:13:32;101356.03;;;22.54;53.93
64340;BME280;50674;53.290;-9.080;2022-08-21T17:19:02;101348.22;;;22.51;52.28
64340;BME280;50674;53.290;-9.080;2022-08-21T17:24:31;101350.84;;;22.44;54.47
64340;BME280;50674;53.290;-9.080;2022-08-21T17:30:00;101352.38;;;22.38;51.42
64340;BME280;50674;53.290;-9.080;2022-08-21T17:35:28;101359.91;;;22.36;51.68
64340;BME280;50674;53.290;-9.080;2022-08-21T17:40:57;101344.28;;;22.30;53.93
64340;BME280;50674;53.290;-9.080;2022-08-21T17:46:27;101334.47;;;22.21;51.04
64340;BME280;50674;53.290;-9.080;2022-08-21T17:51:56;101328.88;;;22.22;51.44
64340;BME280;50674;53.290;-9.080;2022-08-21T17:57:27;101318.22;;;22.05;48.82
64340;BME280;50674;53.290;-9.080;2022-08-21T18:08:26;101308.63;;;21.86;49.51
64340;BME280;50674;53.290;-9.080;2022-08-21T18:13:56;101300.81;;;21.83;54.26
64340;BME280;50674;53.290;-9.080;2022-08-21T18:19:39;101304.63;;;21.73;51.16
64340;BME280;50674;53.290;-9.080;2022-08-21T18:25:07;101298.88;;;21.60;52.88
64340;BME280;50674;53.290;-9.080;2022-08-21T18:30:36;101299.94;;;21.51;53.15
64340;BME280;50674;53.290;-9.080;2022-08-21T18:36:05;101289.44;;;21.48;54.14
64340;BME280;50674;53.290;-9.080;2022-08-21T18:41:34;101282.81;;;21.42;54.88
64340;BME280;50674;53.290;-9.080;2022-08-21T18:47:04;101292.53;;;21.29;56.09
64340;BME280;50674;53.290;-9.080;2022-08-21T18:52:33;101298.59;;;21.31;58.69
64340;BME280;50674;53.290;-9.080;2022-08-21T18:58:03;101274.34;;;21.29;56.49
64340;BME280;50674;53.290;-9.080;2022-08-21T19:03:32;101260.63;;;21.22;57.82
64340;BME280;50674;53.290;-9.080;2022-08-21T19:09:05;101258.25;;;21.19;57.26
64340;BME280;50674;53.290;-9.080;2022-08-21T19:14:33;101254.00;;;21.17;57.66
64340;BME280;50674;53.290;-9.080;2022-08-21T19:20:05;101249.78;;;21.14;58.56
64340;BME280;50674;53.290;-9.080;2022-08-21T19:25:36;101258.09;;;21.13;58.16
64340;BME280;50674;53.290;-9.080;2022-08-21T19:31:08;101256.09;;;21.07;59.29
64340;BME280;50674;53.290;-9.080;2022-08-21T19:36:38;101253.72;;;21.03;59.92
64340;BME280;50674;53.290;-9.080;2022-08-21T19:42:06;101256.78;;;20.92;59.59
64340;BME280;50674;53.290;-9.080;2022-08-21T19:47:37;101240.84;;;20.89;57.19
64340;BME280;50674;53.290;-9.080;2022-08-21T19:53:09;101240.53;;;20.51;62.80
64340;BME280;50674;53.290;-9.080;2022-08-21T19:59:04;101246.59;;;20.37;65.34
64340;BME280;50674;53.290;-9.080;2022-08-21T20:04:33;101243.56;;;20.32;67.46
64340;BME280;50674;53.290;-9.080;2022-08-21T20:10:03;101254.41;;;20.40;65.16
64340;BME280;50674;53.290;-9.080;2022-08-21T20:15:32;101253.91;;;20.28;65.98
64340;BME280;50674;53.290;-9.080;2022-08-21T20:21:02;101264.19;;;20.17;66.63
64340;BME280;50674;53.290;-9.080;2022-08-21T20:26:31;101266.03;;;20.00;68.85
64340;BME280;50674;53.290;-9.080;2022-08-21T20:32:00;101261.06;;;19.87;67.74
64340;BME280;50674;53.290;-9.080;2022-08-21T20:37:31;101254.59;;;19.72;69.58
64340;BME280;50674;53.290;-9.080;2022-08-21T20:43:00;101251.97;;;19.96;68.82
64340;BME280;50674;53.290;-9.080;2022-08-21T20:48:35;101250.06;;;19.80;70.99
64340;BME280;50674;53.290;-9.080;2022-08-21T21:11:22;101239.84;;;19.66;71.78
64340;BME280;50674;53.290;-9.080;2022-08-21T21:16:54;101242.59;;;19.74;69.97
64340;BME280;50674;53.290;-9.080;2022-08-21T21:22:26;101232.25;;;19.70;71.38
64340;BME280;50674;53.290;-9.080;2022-08-21T21:28:39;101224.34;;;19.50;69.61
64340;BME280;50674;53.290;-9.080;2022-08-21T21:33:47;101226.50;;;19.39;72.39
64340;BME280;50674;53.290;-9.080;2022-08-21T21:50:32;101225.22;;;19.17;75.00
64340;BME280;50674;53.290;-9.080;2022-08-21T21:56:14;101226.53;;;19.13;75.14
64340;BME280;50674;53.290;-9.080;2022-08-21T22:02:01;101229.78;;;18.90;77.17
64340;BME280;50674;53.290;-9.080;2022-08-21T22:17:05;101207.50;;;18.70;76.85
64340;BME280;50674;53.290;-9.080;2022-08-21T22:22:35;101208.16;;;18.90;75.42
64340;BME280;50674;53.290;-9.080;2022-08-21T22:28:07;101185.53;;;18.91;75.27
64340;BME280;50674;53.290;-9.080;2022-08-21T22:33:36;101164.00;;;18.63;76.41
64340;BME280;50674;53.290;-9.080;2022-08-21T22:39:06;101158.69;;;18.54;77.17
64340;BME280;50674;53.290;-9.080;2022-08-21T22:44:45;101158.88;;;18.52;75.72
64340;BME280;50674;53.290;-9.080;2022-08-21T22:50:27;101163.31;;;18.35;76.77
64340;BME280;50674;53.290;-9.080;2022-08-21T22:55:58;101163.84;;;18.39;76.98
64340;BME280;50674;53.290;-9.080;2022-08-21T23:07:00;101164.06;;;18.46;77.26
64340;BME280;50674;53.290;-9.080;2022-08-21T23:12:33;101166.44;;;18.49;77.67
64340;BME280;50674;53.290;-9.080;2022-08-21T23:18:19;101146.41;;;18.59;76.71
64340;BME280;50674;53.290;-9.080;2022-08-21T23:29:54;101113.44;;;18.56;76.13
64340;BME280;50674;53.290;-9.080;2022-08-21T23:35:31;101117.88;;;18.39;76.52
64340;BME280;50674;53.290;-9.080;2022-08-21T23:41:35;101114.81;;;18.34;76.37
64340;BME280;50674;53.290;-9.080;2022-08-21T23:47:13;101111.22;;;18.25;76.51
64340;BME280;50674;53.290;-9.080;2022-08-21T23:52:54;101101.34;;;18.16;75.13
